createdAt,value
2017-09-21T00:00:06.013Z,92.59
2017-09-21T00:01:06.028Z,92.59
2017-09-21T00:02:05.743Z,92.4
2017-09-21T00:03:20.695Z,92.11
2017-09-21T00:04:06.103Z,92.4
2017-09-21T00:05:05.810Z,92.88
2017-09-21T00:06:06.138Z,92.59
2017-09-21T00:07:06.162Z,92.79
2017-09-21T00:08:06.183Z,93.16
2017-09-21T00:09:05.897Z,92.88
2017-09-21T00:10:05.920Z,93.26
2017-09-21T00:11:06.249Z,92.88
2017-09-21T00:12:06.272Z,93.07
2017-09-21T00:13:06.296Z,93.26
2017-09-21T00:14:06.010Z,93.07
2017-09-21T00:15:06.340Z,93.07
2017-09-21T00:16:06.055Z,93.45
2017-09-21T00:17:06.079Z,93.45
2017-09-21T00:18:06.099Z,92.88
2017-09-21T00:19:21.049Z,93.07
2017-09-21T00:20:06.450Z,93.74
2017-09-21T00:21:06.478Z,93.74
2017-09-21T00:22:06.498Z,93.55
2017-09-21T00:23:06.517Z,94.02
2017-09-21T00:24:06.544Z,94.12
2017-09-21T00:25:06.562Z,93.93
2017-09-21T00:27:06.658Z,93.84
2017-09-21T00:28:06.627Z,93.93
2017-09-21T00:29:06.652Z,94.02
2017-09-21T00:30:06.673Z,93.84
2017-09-21T00:31:06.698Z,93.84
2017-09-21T00:32:06.717Z,94.41
2017-09-21T00:33:06.738Z,94.41
2017-09-21T00:34:06.455Z,94.7
2017-09-21T00:35:21.407Z,94.51
2017-09-21T00:36:06.807Z,94.41
2017-09-21T00:37:06.859Z,94.41
2017-09-21T00:38:06.542Z,94.6
2017-09-21T00:39:06.873Z,94.51
2017-09-21T00:40:06.588Z,94.7
2017-09-21T00:41:06.925Z,94.41
2017-09-21T00:42:06.941Z,94.89
2017-09-21T00:43:06.963Z,94.41
2017-09-21T00:44:06.984Z,94.7
2017-09-21T00:45:07.014Z,94.79
2017-09-21T00:46:06.720Z,94.79
2017-09-21T00:47:07.051Z,95.07
2017-09-21T00:48:07.075Z,95.17
2017-09-21T00:49:07.099Z,95.27
2017-09-21T00:50:21.741Z,95.46
2017-09-21T00:51:06.834Z,95.46
2017-09-21T00:52:07.163Z,95.65
2017-09-21T00:54:07.211Z,95.27
2017-09-21T00:55:07.230Z,95.75
2017-09-21T00:56:07.252Z,95.75
2017-09-21T00:58:07.353Z,95.36
2017-09-21T00:59:07.322Z,95.56
2017-09-21T01:00:07.032Z,95.65
2017-09-21T01:01:07.363Z,95.56
2017-09-21T01:02:07.386Z,95.56
2017-09-21T01:03:07.100Z,95.46
2017-09-21T01:04:07.123Z,96.03
2017-09-21T01:05:07.171Z,96.32
2017-09-21T01:06:07.166Z,96.37
2017-09-21T01:07:07.189Z,96.32
2017-09-21T01:08:07.212Z,96.46
2017-09-21T01:09:07.540Z,96.03
2017-09-21T01:10:07.563Z,96.32
2017-09-21T01:11:07.585Z,96.8
2017-09-21T01:12:07.608Z,96.61
2017-09-21T01:13:07.322Z,96.46
2017-09-21T01:14:07.342Z,96.66
2017-09-21T01:15:07.674Z,96.7
2017-09-21T01:16:07.695Z,96.8
2017-09-21T01:17:07.721Z,96.7
2017-09-21T01:18:07.745Z,96.56
2017-09-21T01:19:07.765Z,96.46
2017-09-21T01:20:07.800Z,96.84
2017-09-21T01:21:07.806Z,96.94
2017-09-21T01:22:22.529Z,97.03
2017-09-21T01:23:07.851Z,97.42
2017-09-21T01:24:07.876Z,96.42
2017-09-21T01:25:07.898Z,97.08
2017-09-21T01:26:07.918Z,96.46
2017-09-21T01:27:07.940Z,96.8
2017-09-21T01:28:07.656Z,96.75
2017-09-21T01:29:07.987Z,96.75
2017-09-21T01:30:08.007Z,96.66
2017-09-21T01:31:08.034Z,96.37
2017-09-21T01:32:08.051Z,97.03
2017-09-21T01:33:08.077Z,97.03
2017-09-21T01:34:08.097Z,97.03
2017-09-21T01:35:08.118Z,97.13
2017-09-21T01:36:08.142Z,97.13
2017-09-21T01:37:08.160Z,97.23
2017-09-21T01:38:22.806Z,97.23
2017-09-21T01:39:08.208Z,97.52
2017-09-21T01:40:08.230Z,97.61
2017-09-21T01:41:08.253Z,97.61
2017-09-21T01:42:07.964Z,97.52
2017-09-21T01:43:08.292Z,97.52
2017-09-21T01:45:08.342Z,97.61
2017-09-21T01:46:08.369Z,97.23
2017-09-21T01:47:08.382Z,97.99
2017-09-21T01:48:08.415Z,97.42
2017-09-21T01:49:08.154Z,97.8
2017-09-21T01:50:08.449Z,98.08
2017-09-21T01:52:08.494Z,97.99
2017-09-21T01:53:08.515Z,97.52
2017-09-21T01:54:23.159Z,97.89
2017-09-21T01:55:08.566Z,97.8
2017-09-21T01:56:08.582Z,97.99
2017-09-21T01:59:08.649Z,97.61
2017-09-21T02:00:08.672Z,97.71
2017-09-21T02:01:08.384Z,97.71
2017-09-21T02:02:08.718Z,98.08
2017-09-21T02:03:08.737Z,97.8
2017-09-21T02:04:08.759Z,98.28
2017-09-21T02:05:08.779Z,98.57
2017-09-21T02:06:08.805Z,98.37
2017-09-21T02:07:08.825Z,98.08
2017-09-21T02:08:08.855Z,98.85
2017-09-21T02:09:08.868Z,98.66
2017-09-21T02:10:23.513Z,98.66
2017-09-21T02:12:08.630Z,98.57
2017-09-21T02:13:08.958Z,98.85
2017-09-21T02:14:08.982Z,98.85
2017-09-21T02:15:09.004Z,98.94
2017-09-21T02:16:08.715Z,98.57
2017-09-21T02:18:09.073Z,99.14
2017-09-21T02:19:08.787Z,99.14
2017-09-21T02:20:09.116Z,98.57
2017-09-21T02:21:09.136Z,98.66
2017-09-21T02:22:08.848Z,98.75
2017-09-21T02:23:09.179Z,98.66
2017-09-21T02:24:09.205Z,98.66
2017-09-21T02:25:23.845Z,98.47
2017-09-21T02:26:09.245Z,99.23
2017-09-21T02:27:09.269Z,98.66
2017-09-21T02:28:09.295Z,98.94
2017-09-21T02:29:09.312Z,98.85
2017-09-21T02:30:09.337Z,98.85
2017-09-21T02:31:09.356Z,98.94
2017-09-21T02:32:09.070Z,98.94
2017-09-21T02:33:09.402Z,98.66
2017-09-21T02:34:09.421Z,99.23
2017-09-21T02:35:09.135Z,99.04
2017-09-21T02:36:09.469Z,98.85
2017-09-21T02:37:09.489Z,99.23
2017-09-21T02:38:09.561Z,99.33
2017-09-21T02:39:09.565Z,99.33
2017-09-21T02:40:09.554Z,99.9
2017-09-21T02:41:09.269Z,99.99
2017-09-21T02:43:09.622Z,99.71
2017-09-21T02:44:09.333Z,99.8
2017-09-21T02:45:09.663Z,99.71
2017-09-21T02:46:09.380Z,99.71
2017-09-21T02:47:09.708Z,99.62
2017-09-21T02:48:09.731Z,99.33
2017-09-21T02:49:09.752Z,99.71
2017-09-21T02:50:09.466Z,99.71
2017-09-21T02:51:09.799Z,99.9
2017-09-21T02:52:09.827Z,99.99
2017-09-21T02:53:09.533Z,99.99
2017-09-21T02:54:09.556Z,99.71
2017-09-21T02:55:09.886Z,99.99
2017-09-21T02:56:09.908Z,99.8
2017-09-21T02:57:24.551Z,99.62
2017-09-21T02:58:09.954Z,99.8
2017-09-21T03:01:10.020Z,99.62
2017-09-21T03:02:10.040Z,99.8
2017-09-21T03:03:09.754Z,99.99
2017-09-21T03:04:10.085Z,99.9
2017-09-21T03:05:10.107Z,99.71
2017-09-21T03:06:10.130Z,99.43
2017-09-21T03:07:10.152Z,99.8
2017-09-21T03:08:10.174Z,99.62
2017-09-21T03:09:10.195Z,99.99
2017-09-21T03:10:10.223Z,99.8
2017-09-21T03:11:10.239Z,99.8
2017-09-21T03:12:10.258Z,99.52
2017-09-21T03:13:24.936Z,99.99
2017-09-21T03:14:10.339Z,99.8
2017-09-21T03:15:10.326Z,99.62
2017-09-21T03:16:10.347Z,99.71
2017-09-21T03:17:10.369Z,99.99
2017-09-21T03:18:10.393Z,99.99
2017-09-21T03:20:10.438Z,99.71
2017-09-21T03:21:10.459Z,99.99
2017-09-21T03:22:10.170Z,99.99
2017-09-21T03:23:10.503Z,99.99
2017-09-21T03:24:10.525Z,99.99
2017-09-21T03:25:10.242Z,99.99
2017-09-21T03:26:10.567Z,99.99
2017-09-21T03:27:10.284Z,99.99
2017-09-21T03:28:10.305Z,99.99
2017-09-21T03:29:25.256Z,99.99
2017-09-21T03:30:10.667Z,99.99
2017-09-21T03:31:10.681Z,99.99
2017-09-21T03:32:10.705Z,99.99
2017-09-21T03:33:10.414Z,99.99
2017-09-21T03:34:10.745Z,99.99
2017-09-21T03:36:10.788Z,99.99
2017-09-21T03:38:10.833Z,99.99
2017-09-21T03:39:10.852Z,99.99
2017-09-21T03:40:10.880Z,99.99
2017-09-21T03:41:10.899Z,99.99
2017-09-21T03:42:10.919Z,99.99
2017-09-21T03:43:10.944Z,99.99
2017-09-21T03:44:10.972Z,99.99
2017-09-21T03:45:25.609Z,99.99
2017-09-21T03:46:10.702Z,99.99
2017-09-21T03:48:10.742Z,99.99
2017-09-21T03:49:10.765Z,99.99
2017-09-21T03:50:11.097Z,99.99
2017-09-21T03:51:11.118Z,99.99
2017-09-21T03:52:11.142Z,99.99
2017-09-21T03:53:11.164Z,99.99
2017-09-21T03:54:11.187Z,99.99
2017-09-21T03:55:10.898Z,99.99
2017-09-21T03:56:11.226Z,99.99
2017-09-21T03:57:11.248Z,99.99
2017-09-21T03:58:11.274Z,99.99
2017-09-21T03:59:11.294Z,99.99
2017-09-21T04:00:25.938Z,99.99
2017-09-21T04:02:11.360Z,99.99
2017-09-21T04:03:11.382Z,99.99
2017-09-21T04:04:11.408Z,99.99
2017-09-21T04:05:11.426Z,99.99
2017-09-21T04:06:11.449Z,99.99
2017-09-21T04:07:11.472Z,99.99
2017-09-21T04:08:11.492Z,99.99
2017-09-21T04:09:11.513Z,99.99
2017-09-21T04:10:11.539Z,99.99
2017-09-21T04:11:11.567Z,99.99
2017-09-21T04:12:11.272Z,99.99
2017-09-21T04:13:11.605Z,99.99
2017-09-21T04:14:11.626Z,99.99
2017-09-21T04:15:11.647Z,99.99
2017-09-21T04:17:11.382Z,99.99
2017-09-21T04:18:11.714Z,99.99
2017-09-21T04:19:11.735Z,99.99
2017-09-21T04:20:11.757Z,99.99
2017-09-21T04:21:11.779Z,99.99
2017-09-21T04:22:11.803Z,99.99
2017-09-21T04:23:11.823Z,99.99
2017-09-21T04:24:11.843Z,99.99
2017-09-21T04:25:11.558Z,99.99
2017-09-21T04:26:11.888Z,99.99
2017-09-21T04:27:11.915Z,99.99
2017-09-21T04:28:11.625Z,99.99
2017-09-21T04:29:11.646Z,99.99
2017-09-21T04:30:11.669Z,99.99
2017-09-21T04:31:11.999Z,99.99
2017-09-21T04:32:26.641Z,99.99
2017-09-21T04:33:12.044Z,99.99
2017-09-21T04:35:12.089Z,99.99
2017-09-21T04:36:11.800Z,99.99
2017-09-21T04:37:12.129Z,99.99
2017-09-21T04:38:12.153Z,99.99
2017-09-21T04:40:12.196Z,99.99
2017-09-21T04:41:12.218Z,99.99
2017-09-21T04:42:11.929Z,99.99
2017-09-21T04:43:11.954Z,99.99
2017-09-21T04:44:11.974Z,99.99
2017-09-21T04:45:11.998Z,99.99
2017-09-21T04:47:12.041Z,99.99
2017-09-21T04:48:26.991Z,99.99
2017-09-21T04:49:12.392Z,99.99
2017-09-21T04:50:12.104Z,99.99
2017-09-21T04:51:12.128Z,99.99
2017-09-21T04:53:12.481Z,99.99
2017-09-21T04:54:12.499Z,99.99
2017-09-21T04:55:12.215Z,99.99
2017-09-21T04:56:12.545Z,99.99
2017-09-21T04:57:12.566Z,99.99
2017-09-21T04:58:12.280Z,99.99
2017-09-21T04:59:12.615Z,99.99
2017-09-21T05:00:12.633Z,99.99
2017-09-21T05:01:12.348Z,99.99
2017-09-21T05:02:12.676Z,99.99
2017-09-21T05:03:12.731Z,99.99
2017-09-21T05:04:27.342Z,99.99
2017-09-21T05:05:12.742Z,99.99
2017-09-21T05:07:12.785Z,99.99
2017-09-21T05:08:12.806Z,99.99
2017-09-21T05:09:12.830Z,99.99
2017-09-21T05:10:12.851Z,99.99
2017-09-21T05:11:12.882Z,99.99
2017-09-21T05:12:12.898Z,99.99
2017-09-21T05:13:12.920Z,99.99
2017-09-21T05:14:12.632Z,99.99
2017-09-21T05:15:13.013Z,99.99
2017-09-21T05:16:12.983Z,99.99
2017-09-21T05:17:12.696Z,99.99
2017-09-21T05:18:13.026Z,99.99
2017-09-21T05:19:13.046Z,99.99
2017-09-21T05:20:27.691Z,99.99
2017-09-21T05:21:13.092Z,99.99
2017-09-21T05:22:13.115Z,99.99
2017-09-21T05:23:13.142Z,99.99
2017-09-21T05:24:13.158Z,99.99
2017-09-21T05:25:13.181Z,99.99
2017-09-21T05:26:13.199Z,99.99
2017-09-21T05:27:12.917Z,99.99
2017-09-21T05:28:12.937Z,99.99
2017-09-21T05:29:13.266Z,99.99
2017-09-21T05:30:12.979Z,99.99
2017-09-21T05:31:13.310Z,99.99
2017-09-21T05:32:13.025Z,99.99
2017-09-21T05:33:13.362Z,99.99
2017-09-21T05:34:13.376Z,99.99
2017-09-21T05:35:28.021Z,99.99
2017-09-21T05:38:13.158Z,99.99
2017-09-21T05:39:13.488Z,99.99
2017-09-21T05:40:13.506Z,99.99
2017-09-21T05:41:13.535Z,99.99
2017-09-21T05:42:13.553Z,99.99
2017-09-21T05:43:13.574Z,99.99
2017-09-21T05:44:13.595Z,99.99
2017-09-21T05:45:13.621Z,99.99
2017-09-21T05:46:13.643Z,99.99
2017-09-21T05:47:13.662Z,99.99
2017-09-21T05:48:13.682Z,99.99
2017-09-21T05:49:13.709Z,99.99
2017-09-21T05:50:13.727Z,99.85
2017-09-21T05:51:13.750Z,99.76
2017-09-21T05:52:13.463Z,99.85
2017-09-21T05:54:13.824Z,99.85
2017-09-21T05:55:13.837Z,99.66
2017-09-21T05:56:13.864Z,99.38
2017-09-21T05:57:13.882Z,98.99
2017-09-21T05:58:13.907Z,99.28
2017-09-21T05:59:13.619Z,99.48
2017-09-21T06:00:13.952Z,99.19
2017-09-21T06:01:13.975Z,99.76
2017-09-21T06:02:13.995Z,99.57
2017-09-21T06:03:14.021Z,99.76
2017-09-21T06:04:13.730Z,99.99
2017-09-21T06:05:14.061Z,99.48
2017-09-21T06:06:14.082Z,99.66
2017-09-21T06:07:28.726Z,99.99
2017-09-21T06:08:14.125Z,99.99
2017-09-21T06:09:14.148Z,99.99
2017-09-21T06:10:14.174Z,99.99
2017-09-21T06:11:14.202Z,99.99
2017-09-21T06:12:14.220Z,99.48
2017-09-21T06:13:14.240Z,99.99
2017-09-21T06:14:14.265Z,99.85
2017-09-21T06:15:14.285Z,99.57
2017-09-21T06:16:14.310Z,98.8
2017-09-21T06:17:14.333Z,99.19
2017-09-21T06:18:14.356Z,98.18
2017-09-21T06:19:14.377Z,97.9
2017-09-21T06:20:14.400Z,96.94
2017-09-21T06:21:14.115Z,95.89
2017-09-21T06:22:14.445Z,95.84
2017-09-21T06:23:29.092Z,95.17
2017-09-21T06:24:14.494Z,94.89
2017-09-21T06:25:14.516Z,94.65
2017-09-21T06:26:14.540Z,94.26
2017-09-21T06:27:14.564Z,94.17
2017-09-21T06:28:14.588Z,93.79
2017-09-21T06:29:14.615Z,93.02
2017-09-21T06:30:14.637Z,92.44
2017-09-21T06:31:14.661Z,92.35
2017-09-21T06:32:14.684Z,92.83
2017-09-21T06:33:14.704Z,93.3
2017-09-21T06:34:14.420Z,92.63
2017-09-21T06:35:14.754Z,93.5
2017-09-21T06:36:14.794Z,93.74
2017-09-21T06:37:14.800Z,93.74
2017-09-21T06:38:14.825Z,93.84
2017-09-21T06:39:29.470Z,93.93
2017-09-21T06:40:14.872Z,94.6
2017-09-21T06:41:14.586Z,94.02
2017-09-21T06:42:14.612Z,92.78
2017-09-21T06:43:14.638Z,93.21
2017-09-21T06:45:14.992Z,91.34
2017-09-21T06:46:15.016Z,90.86
2017-09-21T06:47:15.041Z,90.29
2017-09-21T06:48:15.066Z,89.72
2017-09-21T06:49:15.092Z,89.72
2017-09-21T06:50:15.116Z,90
2017-09-21T06:51:15.146Z,90.09
2017-09-21T06:52:14.861Z,89.09
2017-09-21T06:53:15.193Z,87.84
2017-09-21T06:54:15.220Z,86.88
2017-09-21T06:55:29.871Z,85.97
2017-09-21T06:56:15.279Z,85.82
2017-09-21T06:57:14.992Z,84.95
2017-09-21T06:58:15.020Z,84.38
2017-09-21T06:59:15.357Z,83.27
2017-09-21T07:00:15.387Z,82.79
2017-09-21T07:01:15.411Z,83.47
2017-09-21T07:03:15.469Z,82.31
2017-09-21T07:04:15.495Z,81.84
2017-09-21T07:05:15.521Z,82.51
2017-09-21T07:06:15.554Z,82.65
2017-09-21T07:07:15.584Z,82.85
2017-09-21T07:08:15.610Z,83.23
2017-09-21T07:09:15.639Z,83.27
2017-09-21T07:10:30.291Z,83.27
2017-09-21T07:11:15.387Z,82.79
2017-09-21T07:12:15.726Z,82.89
2017-09-21T07:13:15.445Z,82.94
2017-09-21T07:14:15.785Z,82.03
2017-09-21T07:15:15.811Z,81.68
2017-09-21T07:16:15.841Z,80.28
2017-09-21T07:17:15.870Z,79.99
2017-09-21T07:18:15.899Z,78.69
2017-09-21T07:19:15.926Z,78.11
2017-09-21T07:20:15.960Z,77.34
2017-09-21T07:21:15.990Z,76.67
2017-09-21T07:22:16.020Z,76.32
2017-09-21T07:23:16.052Z,76.61
2017-09-21T07:25:15.799Z,76.86
2017-09-21T07:26:16.136Z,76.77
2017-09-21T07:27:16.169Z,75.27
2017-09-21T07:28:15.889Z,74.54
2017-09-21T07:30:16.259Z,73.61
2017-09-21T07:31:15.977Z,73.67
2017-09-21T07:32:16.317Z,73.09
2017-09-21T07:33:16.354Z,73.32
2017-09-21T07:34:16.379Z,73.38
2017-09-21T07:35:16.406Z,73.19
2017-09-21T07:36:16.442Z,72.9
2017-09-21T07:37:16.161Z,73.38
2017-09-21T07:38:16.495Z,74.15
2017-09-21T07:39:16.527Z,74.05
2017-09-21T07:40:16.554Z,73.77
2017-09-21T07:42:31.236Z,73.51
2017-09-21T07:43:16.646Z,73.22
2017-09-21T07:44:16.674Z,74.15
2017-09-21T07:46:16.730Z,75.65
2017-09-21T07:47:16.755Z,75.75
2017-09-21T07:48:16.782Z,75.27
2017-09-21T07:49:16.811Z,75.37
2017-09-21T07:50:16.840Z,75.37
2017-09-21T07:51:16.872Z,76.48
2017-09-21T07:52:16.900Z,75.9
2017-09-21T07:53:16.922Z,76.39
2017-09-21T07:54:16.955Z,75.81
2017-09-21T07:55:16.672Z,76.09
2017-09-21T07:56:17.004Z,76.57
2017-09-21T07:58:31.681Z,76.77
2017-09-21T07:59:17.086Z,76.14
2017-09-21T08:00:17.110Z,75.37
2017-09-21T08:02:17.172Z,73.51
2017-09-21T08:03:16.885Z,72.94
2017-09-21T08:04:17.221Z,73.13
2017-09-21T08:05:17.249Z,72.45
2017-09-21T08:06:17.278Z,71.97
2017-09-21T08:07:17.302Z,72.55
2017-09-21T08:08:17.337Z,71.4
2017-09-21T08:09:17.362Z,71.14
2017-09-21T08:10:17.390Z,72.26
2017-09-21T08:11:17.415Z,72.17
2017-09-21T08:12:17.443Z,73.13
2017-09-21T08:13:17.473Z,72.07
2017-09-21T08:14:32.123Z,72.26
2017-09-21T08:15:17.526Z,73.09
2017-09-21T08:17:17.274Z,73.47
2017-09-21T08:21:17.693Z,71.4
2017-09-21T08:22:17.720Z,72.36
2017-09-21T08:23:17.748Z,72.55
2017-09-21T08:24:17.775Z,73.71
2017-09-21T08:25:17.800Z,73.77
2017-09-21T08:26:17.824Z,73.67
2017-09-21T08:27:17.856Z,73.47
2017-09-21T08:28:17.573Z,74.98
2017-09-21T08:29:17.597Z,75.42
2017-09-21T08:30:32.556Z,75.04
2017-09-21T08:31:17.963Z,75.32
2017-09-21T08:32:17.991Z,76.19
2017-09-21T08:33:18.019Z,76.77
2017-09-21T08:34:18.041Z,76.96
2017-09-21T08:35:18.066Z,77.69
2017-09-21T08:36:18.090Z,77.01
2017-09-21T08:37:18.118Z,77.15
2017-09-21T08:38:18.153Z,76.77
2017-09-21T08:39:18.171Z,76
2017-09-21T08:40:18.193Z,75.56
2017-09-21T08:41:18.221Z,75.27
2017-09-21T08:42:18.247Z,74.63
2017-09-21T08:43:18.274Z,74.15
2017-09-21T08:44:17.990Z,74.34
2017-09-21T08:45:32.949Z,74.05
2017-09-21T08:47:18.377Z,73.13
2017-09-21T08:48:18.402Z,72.84
2017-09-21T08:49:18.428Z,73.03
2017-09-21T08:50:18.456Z,73.13
2017-09-21T08:51:18.172Z,73.22
2017-09-21T08:52:18.506Z,74.21
2017-09-21T08:53:18.531Z,75.04
2017-09-21T08:54:18.558Z,75.32
2017-09-21T08:55:18.596Z,74.5
2017-09-21T08:56:18.610Z,73.86
2017-09-21T08:57:18.327Z,73.47
2017-09-21T08:58:18.661Z,73.57
2017-09-21T08:59:18.688Z,73.63
2017-09-21T09:00:18.714Z,74.11
2017-09-21T09:01:18.739Z,73.47
2017-09-21T09:03:18.481Z,73.06
2017-09-21T09:04:18.816Z,72.52
2017-09-21T09:06:18.866Z,72.23
2017-09-21T09:07:18.893Z,72.67
2017-09-21T09:08:18.919Z,72.13
2017-09-21T09:09:18.943Z,72.13
2017-09-21T09:10:18.971Z,72.23
2017-09-21T09:11:18.995Z,71.08
2017-09-21T09:12:19.025Z,70.62
2017-09-21T09:13:19.052Z,68.44
2017-09-21T09:14:19.075Z,69.12
2017-09-21T09:15:19.100Z,70.15
2017-09-21T09:16:19.133Z,70.82
2017-09-21T09:17:33.783Z,70.88
2017-09-21T09:18:18.871Z,70.5
2017-09-21T09:20:18.923Z,70.5
2017-09-21T09:21:18.949Z,69.76
2017-09-21T09:22:19.286Z,68.13
2017-09-21T09:23:19.312Z,68.64
2017-09-21T09:24:19.336Z,68.26
2017-09-21T09:25:19.364Z,68.6
2017-09-21T09:26:19.390Z,68.99
2017-09-21T09:27:19.416Z,69.44
2017-09-21T09:28:19.440Z,70.59
2017-09-21T09:29:19.468Z,72
2017-09-21T09:30:19.494Z,71.91
2017-09-21T09:31:19.519Z,71.23
2017-09-21T09:32:19.545Z,70.5
2017-09-21T09:33:34.193Z,70.46
2017-09-21T09:34:19.606Z,70.5
2017-09-21T09:35:19.314Z,69.82
2017-09-21T09:36:19.646Z,69.92
2017-09-21T09:37:19.672Z,69.63
2017-09-21T09:39:19.723Z,69.44
2017-09-21T09:40:19.758Z,68.67
2017-09-21T09:41:19.777Z,68.48
2017-09-21T09:42:19.804Z,69.15
2017-09-21T09:43:19.829Z,68.7
2017-09-21T09:44:19.853Z,69.67
2017-09-21T09:45:19.877Z,70.11
2017-09-21T09:46:19.903Z,68.99
2017-09-21T09:47:19.623Z,69.38
2017-09-21T09:48:19.958Z,70.78
2017-09-21T09:49:34.603Z,70.05
2017-09-21T09:50:20.010Z,69.38
2017-09-21T09:51:19.726Z,69.28
2017-09-21T09:52:19.750Z,69.76
2017-09-21T09:53:20.086Z,70.59
2017-09-21T09:54:19.802Z,70.34
2017-09-21T09:56:19.852Z,69.85
2017-09-21T09:57:20.191Z,70.53
2017-09-21T09:58:20.213Z,71.36
2017-09-21T09:59:20.241Z,72.48
2017-09-21T10:00:19.955Z,72.58
2017-09-21T10:01:20.287Z,72.13
2017-09-21T10:02:20.314Z,71.46
2017-09-21T10:03:20.340Z,70.3
2017-09-21T10:04:20.056Z,70.21
2017-09-21T10:05:35.015Z,69.92
2017-09-21T10:06:20.419Z,69.82
2017-09-21T10:07:20.444Z,69.34
2017-09-21T10:09:20.495Z,69.24
2017-09-21T10:10:20.521Z,69.82
2017-09-21T10:11:20.548Z,69.44
2017-09-21T10:12:20.262Z,69.24
2017-09-21T10:13:20.595Z,70.3
2017-09-21T10:14:20.621Z,69.53
2017-09-21T10:15:20.647Z,69.57
2017-09-21T10:16:20.675Z,68.6
2017-09-21T10:17:20.702Z,68.06
2017-09-21T10:18:20.415Z,68.35
2017-09-21T10:19:20.750Z,66.94
2017-09-21T10:20:35.399Z,65.4
2017-09-21T10:21:20.800Z,65.69
2017-09-21T10:22:20.826Z,65.98
2017-09-21T10:23:20.884Z,67.19
2017-09-21T10:24:20.880Z,67.68
2017-09-21T10:25:20.905Z,67.65
2017-09-21T10:26:20.623Z,67.83
2017-09-21T10:27:20.956Z,68.22
2017-09-21T10:28:20.984Z,67.65
2017-09-21T10:29:21.007Z,67.83
2017-09-21T10:30:21.034Z,66.39
2017-09-21T10:31:20.753Z,65.75
2017-09-21T10:32:21.085Z,65.66
2017-09-21T10:33:21.115Z,65.4
2017-09-21T10:34:21.138Z,64.92
2017-09-21T10:35:21.211Z,64.95
2017-09-21T10:36:21.188Z,64.95
2017-09-21T10:37:21.215Z,64.02
2017-09-21T10:39:21.265Z,62.76
2017-09-21T10:40:21.290Z,60.83
2017-09-21T10:41:21.317Z,61.96
2017-09-21T10:42:21.345Z,62.45
2017-09-21T10:43:21.061Z,62.93
2017-09-21T10:44:21.087Z,62.93
2017-09-21T10:45:21.111Z,62.45
2017-09-21T10:46:21.446Z,62.93
2017-09-21T10:47:21.166Z,64.76
2017-09-21T10:48:21.190Z,63.98
2017-09-21T10:49:21.216Z,64.73
2017-09-21T10:50:21.241Z,64.92
2017-09-21T10:51:21.574Z,64.66
2017-09-21T10:52:36.225Z,64.76
2017-09-21T10:53:21.627Z,65.5
2017-09-21T10:54:21.657Z,65.69
2017-09-21T10:55:21.680Z,66.71
2017-09-21T10:56:21.704Z,67.65
2017-09-21T10:57:21.729Z,67.93
2017-09-21T10:58:21.756Z,68.13
2017-09-21T11:00:21.809Z,68.51
2017-09-21T11:01:21.833Z,67.93
2017-09-21T11:02:21.549Z,67.55
2017-09-21T11:03:21.887Z,66.71
2017-09-21T11:04:21.912Z,66.97
2017-09-21T11:05:21.626Z,67.55
2017-09-21T11:06:21.653Z,67.65
2017-09-21T11:07:21.984Z,67.26
2017-09-21T11:08:36.634Z,66.24
2017-09-21T11:11:22.086Z,66.01
2017-09-21T11:12:22.115Z,66.24
2017-09-21T11:13:21.827Z,65.56
2017-09-21T11:14:21.855Z,65.4
2017-09-21T11:15:22.186Z,65.5
2017-09-21T11:16:22.215Z,65.01
2017-09-21T11:17:22.238Z,65.4
2017-09-21T11:18:22.263Z,65.01
2017-09-21T11:19:22.293Z,66.04
2017-09-21T11:20:22.315Z,67.1
2017-09-21T11:21:22.345Z,66.58
2017-09-21T11:22:22.372Z,66.81
2017-09-21T11:24:37.039Z,65.2
2017-09-21T11:25:22.439Z,64.53
2017-09-21T11:26:22.467Z,63.89
2017-09-21T11:28:22.519Z,63.41
2017-09-21T11:29:22.542Z,63.5
2017-09-21T11:30:22.567Z,63.5
2017-09-21T11:31:22.597Z,63.5
2017-09-21T11:32:22.618Z,63.89
2017-09-21T11:33:22.647Z,63.6
2017-09-21T11:34:22.363Z,62.93
2017-09-21T11:35:22.695Z,63.21
2017-09-21T11:36:22.720Z,63.89
2017-09-21T11:37:22.746Z,63.7
2017-09-21T11:38:22.465Z,63.41
2017-09-21T11:39:22.802Z,63.79
2017-09-21T11:40:37.446Z,64.08
2017-09-21T11:41:22.849Z,63.89
2017-09-21T11:44:22.617Z,64.79
2017-09-21T11:45:22.987Z,65.46
2017-09-21T11:46:22.976Z,66.14
2017-09-21T11:47:22.693Z,66.62
2017-09-21T11:48:23.029Z,65.94
2017-09-21T11:49:22.748Z,66.71
2017-09-21T11:50:22.773Z,66.71
2017-09-21T11:51:23.102Z,66.71
2017-09-21T11:52:23.128Z,65.88
2017-09-21T11:53:23.157Z,66.62
2017-09-21T11:54:23.183Z,66.36
2017-09-21T11:55:37.829Z,65.69
2017-09-21T11:57:23.258Z,65.3
2017-09-21T11:58:23.282Z,65.85
2017-09-21T11:59:23.310Z,66.33
2017-09-21T12:00:23.339Z,66.04
2017-09-21T12:01:23.101Z,65.01
2017-09-21T12:02:23.384Z,65.5
2017-09-21T12:03:23.466Z,65.3
2017-09-21T12:04:23.436Z,64.82
2017-09-21T12:05:23.461Z,63.98
2017-09-21T12:06:23.490Z,63.6
2017-09-21T12:07:23.515Z,62.73
2017-09-21T12:08:23.540Z,62.93
2017-09-21T12:09:23.566Z,62.83
2017-09-21T12:10:23.589Z,63.31
2017-09-21T12:11:23.614Z,63.89
2017-09-21T12:12:23.644Z,63.5
2017-09-21T12:13:23.666Z,63.5
2017-09-21T12:14:23.691Z,63.41
2017-09-21T12:16:23.744Z,63.85
2017-09-21T12:17:23.768Z,64.59
2017-09-21T12:18:23.793Z,65.91
2017-09-21T12:19:23.818Z,65.75
2017-09-21T12:20:23.850Z,65.75
2017-09-21T12:21:23.869Z,65.53
2017-09-21T12:22:23.587Z,66.2
2017-09-21T12:23:23.919Z,66.78
2017-09-21T12:24:23.948Z,67.55
2017-09-21T12:25:23.972Z,67.42
2017-09-21T12:26:23.996Z,68.09
2017-09-21T12:27:38.645Z,68.76
2017-09-21T12:29:23.766Z,70.46
2017-09-21T12:30:23.791Z,71.52
2017-09-21T12:31:23.813Z,72.25
2017-09-21T12:32:23.839Z,73.98
2017-09-21T12:33:24.175Z,75.38
2017-09-21T12:35:24.223Z,77.01
2017-09-21T12:36:24.249Z,78.42
2017-09-21T12:37:24.275Z,79.57
2017-09-21T12:38:24.297Z,80.53
2017-09-21T12:39:24.323Z,81.4
2017-09-21T12:40:24.352Z,81.45
2017-09-21T12:41:24.377Z,82.7
2017-09-21T12:42:24.401Z,83.33
2017-09-21T12:43:39.044Z,83.61
2017-09-21T12:44:24.449Z,84.48
2017-09-21T12:45:24.473Z,84.67
2017-09-21T12:46:24.495Z,84.77
2017-09-21T12:47:24.521Z,85.05
2017-09-21T12:48:24.543Z,85.05
2017-09-21T12:49:24.570Z,84.95
2017-09-21T12:50:24.595Z,85.44
2017-09-21T12:51:24.309Z,85.78
2017-09-21T12:52:24.646Z,85.63
2017-09-21T12:53:24.359Z,85.78
2017-09-21T12:54:24.694Z,87.12
2017-09-21T12:55:24.723Z,86.74
2017-09-21T12:56:24.739Z,86.68
2017-09-21T12:57:24.764Z,85.92
2017-09-21T12:58:24.789Z,85.72
2017-09-21T12:59:39.434Z,85.82
2017-09-21T13:01:24.863Z,85.34
2017-09-21T13:02:24.887Z,85.34
2017-09-21T13:03:24.909Z,85.25
2017-09-21T13:04:24.932Z,85.05
2017-09-21T13:05:24.961Z,84.67
2017-09-21T13:06:24.983Z,85.34
2017-09-21T13:07:25.008Z,85.34
2017-09-21T13:08:25.031Z,84.95
2017-09-21T13:09:25.055Z,84.95
2017-09-21T13:10:25.080Z,85.05
2017-09-21T13:11:25.104Z,84.28
2017-09-21T13:12:25.130Z,85.05
2017-09-21T13:13:25.154Z,84.38
2017-09-21T13:15:39.821Z,85.34
2017-09-21T13:16:25.222Z,84.58
2017-09-21T13:17:25.250Z,84.48
2017-09-21T13:18:24.965Z,84.19
2017-09-21T13:19:25.294Z,84.48
2017-09-21T13:20:25.320Z,83.85
2017-09-21T13:21:25.344Z,83.71
2017-09-21T13:22:25.367Z,83.71
2017-09-21T13:23:25.397Z,83.56
2017-09-21T13:24:25.416Z,83.56
2017-09-21T13:25:25.443Z,83.94
2017-09-21T13:26:25.466Z,83.47
2017-09-21T13:27:25.491Z,84.28
2017-09-21T13:28:25.514Z,83.85
2017-09-21T13:29:25.541Z,84.28
2017-09-21T13:30:40.185Z,85.25
2017-09-21T13:31:25.280Z,85.25
2017-09-21T13:32:25.301Z,85.82
2017-09-21T13:33:25.641Z,85.82
2017-09-21T13:34:25.658Z,86.21
2017-09-21T13:35:25.698Z,85.72
2017-09-21T13:36:25.399Z,85.63
2017-09-21T13:37:25.424Z,85.72
2017-09-21T13:38:25.758Z,86.4
2017-09-21T13:39:25.778Z,86.11
2017-09-21T13:40:25.803Z,86.49
2017-09-21T13:41:25.826Z,86.11
2017-09-21T13:42:25.887Z,86.01
2017-09-21T13:43:25.873Z,85.82
2017-09-21T13:44:25.897Z,85.63
2017-09-21T13:45:25.923Z,84.91
2017-09-21T13:46:25.946Z,84.61
2017-09-21T13:47:25.968Z,84.42
2017-09-21T13:48:25.687Z,83.37
2017-09-21T13:49:25.711Z,83.56
2017-09-21T13:50:25.734Z,83.47
2017-09-21T13:51:26.066Z,83.37
2017-09-21T13:52:26.090Z,83.18
2017-09-21T13:53:26.114Z,82.89
2017-09-21T13:54:26.141Z,83.18